createdAt,value
2019-04-16T00:00:50.546Z,5.35
2019-04-16T00:03:20.228Z,5.32
2019-04-16T00:06:03.032Z,5.25
2019-04-16T00:08:39.333Z,5.26
2019-04-16T00:11:09.535Z,5.20
2019-04-16T00:13:42.645Z,5.15
2019-04-16T00:16:13.106Z,5.14
2019-04-16T00:18:41.257Z,5.09
2019-04-16T00:21:20.071Z,5.02
2019-04-16T00:23:55.834Z,4.97
2019-04-16T00:26:26.787Z,4.90
2019-04-16T00:28:54.588Z,4.90
2019-04-16T00:31:23.016Z,4.95
2019-04-16T00:33:51.476Z,4.90
2019-04-16T00:36:19.944Z,4.94
2019-04-16T00:38:48.389Z,4.96
2019-04-16T00:41:16.832Z,4.87
2019-04-16T00:43:45.299Z,4.76
2019-04-16T00:46:13.878Z,4.70
2019-04-16T00:48:42.339Z,4.69
2019-04-16T00:51:10.924Z,4.63
2019-04-16T00:53:39.761Z,4.56
2019-04-16T00:56:08.648Z,4.49
2019-04-16T00:58:37.077Z,4.49
2019-04-16T01:01:05.553Z,4.49
2019-04-16T01:03:34.045Z,4.41
2019-04-16T01:06:07.026Z,4.41
2019-04-16T01:08:33.011Z,4.38
2019-04-16T01:11:01.455Z,4.34
2019-04-16T01:13:29.912Z,4.38
2019-04-16T01:16:02.479Z,4.35
2019-04-16T01:18:28.512Z,4.27
2019-04-16T01:20:57.018Z,4.16
2019-04-16T01:23:25.437Z,4.23
2019-04-16T01:25:55.662Z,4.13
2019-04-16T01:28:29.417Z,4.16
2019-04-16T01:31:15.724Z,4.10
2019-04-16T01:34:02.007Z,4.06
2019-04-16T01:36:51.376Z,4.05
2019-04-16T01:39:21.919Z,4.01
2019-04-16T01:41:53.287Z,3.99
2019-04-16T01:44:20.540Z,3.89
2019-04-16T01:46:48.982Z,3.90
2019-04-16T01:49:17.421Z,3.86
2019-04-16T01:51:47.480Z,3.86
2019-04-16T01:54:16.066Z,3.84
2019-04-16T01:56:44.508Z,3.89
2019-04-16T01:59:12.966Z,3.83
2019-04-16T02:01:43.387Z,3.80
2019-04-16T02:04:11.665Z,3.81
2019-04-16T02:06:40.123Z,3.79
2019-04-16T02:09:16.070Z,3.75
2019-04-16T02:11:41.494Z,3.73
2019-04-16T02:14:09.016Z,3.68
2019-04-16T02:16:37.457Z,3.65
2019-04-16T02:19:06.023Z,3.61
2019-04-16T02:21:34.782Z,3.60
2019-04-16T02:24:03.280Z,3.52
2019-04-16T02:26:31.705Z,3.46
2019-04-16T02:29:00.166Z,3.46
2019-04-16T02:31:28.614Z,3.41
2019-04-16T02:33:57.034Z,3.41
2019-04-16T02:36:25.601Z,3.35
2019-04-16T02:38:54.048Z,3.27
2019-04-16T02:41:24.477Z,3.20
2019-04-16T02:43:52.646Z,3.18
2019-04-16T02:46:21.156Z,3.16
2019-04-16T02:48:51.371Z,3.15
2019-04-16T02:51:39.789Z,3.18
2019-04-16T02:54:16.775Z,3.14
2019-04-16T02:56:51.562Z,3.06
2019-04-16T02:59:21.997Z,3.06
2019-04-16T03:01:52.647Z,3.03
2019-04-16T03:04:31.531Z,3.03
2019-04-16T03:07:02.699Z,3.00
2019-04-16T03:09:30.289Z,3.01
2019-04-16T03:11:58.726Z,3.01
2019-04-16T03:14:29.984Z,2.92
2019-04-16T03:17:10.603Z,2.83
2019-04-16T03:19:52.569Z,2.82
2019-04-16T03:22:21.017Z,2.79
2019-04-16T03:24:49.694Z,2.77
2019-04-16T03:27:21.853Z,2.69
2019-04-16T03:29:48.318Z,2.57
2019-04-16T03:32:16.818Z,2.53
2019-04-16T03:34:45.320Z,2.57
2019-04-16T03:37:13.837Z,2.52
2019-04-16T03:39:44.717Z,2.47
2019-04-16T03:42:12.448Z,2.41
2019-04-16T03:44:40.884Z,2.35
2019-04-16T03:47:09.307Z,2.29
2019-04-16T03:49:37.760Z,2.25
2019-04-16T03:52:08.801Z,2.19
2019-04-16T03:54:36.394Z,2.14
2019-04-16T03:57:04.899Z,2.10
2019-04-16T03:59:33.273Z,2.03
2019-04-16T04:02:01.736Z,1.97
2019-04-16T04:04:30.542Z,1.97
2019-04-16T04:06:59.008Z,1.93
2019-04-16T04:09:27.543Z,1.90
2019-04-16T04:11:56.046Z,1.88
2019-04-16T04:14:24.574Z,1.83
2019-04-16T04:16:53.027Z,1.86
2019-04-16T04:19:21.558Z,1.76
2019-04-16T04:21:50.693Z,1.75
2019-04-16T04:24:20.150Z,1.72
2019-04-16T04:26:48.637Z,1.80
2019-04-16T04:29:17.110Z,1.73
2019-04-16T04:31:45.576Z,1.74
2019-04-16T04:34:16.815Z,1.78
2019-04-16T04:36:44.914Z,1.78
2019-04-16T04:39:15.675Z,1.76
2019-04-16T04:41:43.529Z,1.82
2019-04-16T04:44:12.041Z,1.74
2019-04-16T04:46:43.292Z,1.74
2019-04-16T04:49:10.611Z,1.76
2019-04-16T04:51:42.506Z,1.76
2019-04-16T04:54:09.405Z,1.78
2019-04-16T04:56:38.042Z,1.76
2019-04-16T04:59:06.828Z,1.78
2019-04-16T05:01:35.256Z,1.81
2019-04-16T05:04:18.931Z,1.83
2019-04-16T05:06:54.423Z,1.90
2019-04-16T05:09:22.139Z,1.95
2019-04-16T05:11:50.613Z,1.98
2019-04-16T05:14:19.032Z,2.00
2019-04-16T05:16:47.513Z,2.04
2019-04-16T05:19:16.110Z,2.05
2019-04-16T05:21:44.541Z,2.12
2019-04-16T05:24:13.080Z,2.19
2019-04-16T05:26:41.507Z,2.19
2019-04-16T05:29:17.044Z,2.23
2019-04-16T05:31:43.736Z,2.27
2019-04-16T05:34:12.227Z,2.30
2019-04-16T05:36:46.561Z,2.27
2019-04-16T05:39:10.848Z,2.33
2019-04-16T05:41:39.366Z,2.38
2019-04-16T05:44:07.816Z,2.44
2019-04-16T05:46:38.340Z,2.42
2019-04-16T05:49:06.519Z,2.53
2019-04-16T05:51:34.999Z,2.62
2019-04-16T05:54:08.412Z,2.65
2019-04-16T05:56:39.807Z,2.86
2019-04-16T05:59:08.345Z,3.47
2019-04-16T06:01:50.121Z,3.88
2019-04-16T06:04:18.788Z,4.22
2019-04-16T06:06:47.215Z,4.44
2019-04-16T06:09:15.668Z,4.57
2019-04-16T06:11:44.404Z,4.79
2019-04-16T06:14:26.310Z,5.61
2019-04-16T06:17:05.886Z,5.63
2019-04-16T06:19:52.316Z,5.41
2019-04-16T06:22:28.313Z,6.41
2019-04-16T06:25:09.238Z,6.61
2019-04-16T06:27:37.783Z,6.36
2019-04-16T06:30:17.608Z,6.75
2019-04-16T06:32:50.354Z,6.54
2019-04-16T06:35:42.912Z,6.63
2019-04-16T06:38:08.433Z,7.03
2019-04-16T06:40:47.183Z,7.51
2019-04-16T06:43:17.457Z,7.20
2019-04-16T06:46:02.520Z,7.22
2019-04-16T06:48:35.468Z,7.47
2019-04-16T06:51:05.610Z,7.27
2019-04-16T06:53:54.009Z,8.01
2019-04-16T06:56:23.919Z,8.01
2019-04-16T06:58:57.210Z,8.48
2019-04-16T07:01:36.736Z,7.79
2019-04-16T07:04:06.550Z,8.20
2019-04-16T07:06:43.597Z,8.36
2019-04-16T07:09:25.747Z,7.66
2019-04-16T07:11:55.563Z,7.72
2019-04-16T07:14:23.988Z,7.95
2019-04-16T07:16:52.443Z,8.42
2019-04-16T07:19:20.884Z,8.86
2019-04-16T07:21:49.956Z,8.38
2019-04-16T07:24:22.264Z,8.68
2019-04-16T07:26:48.913Z,9.04
2019-04-16T07:29:22.303Z,9.48
2019-04-16T07:31:53.669Z,9.44
2019-04-16T07:34:33.467Z,10.02
2019-04-16T07:37:19.164Z,9.82
2019-04-16T07:39:49.261Z,9.94
2019-04-16T07:42:35.781Z,10.16
2019-04-16T07:45:26.993Z,10.52
2019-04-16T07:48:00.235Z,10.10
2019-04-16T07:50:46.806Z,9.99
2019-04-16T07:53:19.638Z,10.55
2019-04-16T07:55:49.662Z,11.52
2019-04-16T07:58:18.183Z,11.71
2019-04-16T08:00:46.894Z,11.60
2019-04-16T08:03:15.460Z,12.58
2019-04-16T08:05:43.897Z,12.03
2019-04-16T08:08:12.418Z,12.17
2019-04-16T08:10:40.853Z,12.93
2019-04-16T08:13:13.930Z,11.77
2019-04-16T08:15:41.217Z,12.03
2019-04-16T08:18:09.660Z,12.10
2019-04-16T08:20:38.139Z,13.21
2019-04-16T08:23:24.362Z,12.59
2019-04-16T08:26:01.889Z,13.22
2019-04-16T08:28:23.074Z,12.80
2019-04-16T08:30:51.523Z,12.78
2019-04-16T08:33:20.119Z,13.04
2019-04-16T08:35:48.574Z,13.02
2019-04-16T08:38:17.087Z,13.08
2019-04-16T08:40:46.329Z,12.05
2019-04-16T08:43:15.527Z,12.43
2019-04-16T08:45:43.981Z,12.75
2019-04-16T08:48:16.889Z,12.73
2019-04-16T08:50:42.661Z,12.59
2019-04-16T08:53:14.248Z,12.79
2019-04-16T08:55:41.462Z,13.03
2019-04-16T08:58:12.444Z,12.80
2019-04-16T09:00:40.567Z,13.04
2019-04-16T09:03:09.009Z,12.94
2019-04-16T09:05:41.337Z,13.12
2019-04-16T09:08:12.882Z,12.96
2019-04-16T09:10:39.526Z,12.74
2019-04-16T09:13:09.579Z,12.73
2019-04-16T09:15:38.994Z,12.78
2019-04-16T09:18:24.962Z,12.79
2019-04-16T09:20:53.382Z,12.66
2019-04-16T09:23:22.800Z,12.87
2019-04-16T09:26:13.257Z,12.60
2019-04-16T09:28:36.751Z,13.07
2019-04-16T09:31:23.334Z,13.01
2019-04-16T09:33:53.421Z,12.85
2019-04-16T09:36:40.074Z,12.49
2019-04-16T09:39:12.993Z,12.88
2019-04-16T09:41:42.614Z,12.77
2019-04-16T09:44:11.127Z,13.00
2019-04-16T09:46:50.865Z,13.39
2019-04-16T09:49:09.767Z,13.18
2019-04-16T09:51:38.288Z,13.18
2019-04-16T09:54:06.815Z,12.86
2019-04-16T09:56:37.048Z,13.14
2019-04-16T09:59:07.531Z,13.19
2019-04-16T10:01:46.644Z,13.11
2019-04-16T10:04:16.745Z,13.41
2019-04-16T10:06:45.183Z,13.24
2019-04-16T10:09:13.783Z,13.44
2019-04-16T10:11:42.277Z,13.41
2019-04-16T10:14:10.857Z,13.49
2019-04-16T10:16:39.448Z,13.70
2019-04-16T10:19:09.066Z,13.47
2019-04-16T10:21:37.784Z,13.58
2019-04-16T10:24:08.028Z,13.38
2019-04-16T10:26:36.461Z,13.61
2019-04-16T10:29:21.856Z,13.56
2019-04-16T10:31:50.501Z,13.52
2019-04-16T10:34:18.970Z,13.77
2019-04-16T10:36:47.507Z,13.79
2019-04-16T10:39:26.519Z,13.70
2019-04-16T10:42:02.149Z,13.68
2019-04-16T10:44:32.357Z,13.42
2019-04-16T10:47:02.520Z,13.64
2019-04-16T10:49:32.629Z,13.80
2019-04-16T10:52:05.270Z,13.85
2019-04-16T10:54:44.194Z,13.64
2019-04-16T10:57:23.438Z,13.59
2019-04-16T11:00:08.522Z,13.61
2019-04-16T11:02:44.436Z,13.59
2019-04-16T11:05:23.846Z,14.06
2019-04-16T11:07:54.042Z,13.95
2019-04-16T11:10:22.633Z,14.00
2019-04-16T11:12:51.099Z,13.91
2019-04-16T11:15:21.342Z,13.77
2019-04-16T11:17:52.298Z,13.96
2019-04-16T11:20:20.785Z,13.96
2019-04-16T11:22:49.224Z,13.78
2019-04-16T11:25:17.738Z,14.04
2019-04-16T11:27:46.228Z,14.24
2019-04-16T11:30:30.671Z,14.08
2019-04-16T11:33:00.057Z,14.26
2019-04-16T11:35:28.675Z,14.13
2019-04-16T11:37:57.153Z,14.13
2019-04-16T11:40:25.598Z,14.22
2019-04-16T11:42:54.109Z,14.09
2019-04-16T11:45:22.657Z,14.31
2019-04-16T11:47:51.129Z,14.04
2019-04-16T11:50:19.634Z,14.37
2019-04-16T11:52:48.075Z,14.20
2019-04-16T11:55:16.600Z,14.09
2019-04-16T11:57:45.054Z,14.26
2019-04-16T12:00:19.349Z,14.34
2019-04-16T12:03:08.059Z,14.38
2019-04-16T12:05:54.644Z,14.42
2019-04-16T12:08:27.480Z,14.23
2019-04-16T12:11:13.665Z,14.27
2019-04-16T12:13:43.893Z,14.44
2019-04-16T12:16:31.753Z,14.52
2019-04-16T12:19:01.928Z,14.35
2019-04-16T12:21:49.257Z,14.44
2019-04-16T12:24:21.829Z,14.54
2019-04-16T12:27:00.559Z,14.49
2019-04-16T12:29:30.703Z,14.39
2019-04-16T12:32:06.823Z,14.64
2019-04-16T12:34:39.657Z,14.79
2019-04-16T12:37:19.305Z,14.59
2019-04-16T12:39:49.424Z,14.56
2019-04-16T12:42:19.599Z,14.47
2019-04-16T12:44:53.014Z,14.64
2019-04-16T12:47:31.953Z,14.72
2019-04-16T12:50:04.752Z,14.62
2019-04-16T12:52:37.855Z,14.68
2019-04-16T12:55:25.126Z,14.63
2019-04-16T12:58:07.205Z,14.83
2019-04-16T13:00:48.969Z,14.82
2019-04-16T13:03:19.144Z,14.86
2019-04-16T13:06:05.585Z,14.92
2019-04-16T13:08:36.487Z,14.62
2019-04-16T13:11:09.546Z,14.81
2019-04-16T13:13:57.582Z,14.85
2019-04-16T13:16:27.687Z,14.92
2019-04-16T13:19:08.191Z,15.08
2019-04-16T13:21:38.455Z,15.23
2019-04-16T13:24:20.739Z,15.00
2019-04-16T13:26:50.918Z,14.90
2019-04-16T13:29:20.061Z,15.04
2019-04-16T13:31:48.580Z,15.22
2019-04-16T13:34:18.667Z,15.18
2019-04-16T13:36:47.236Z,15.27
2019-04-16T13:39:17.488Z,15.29
2019-04-16T13:41:45.940Z,15.22
2019-04-16T13:44:27.697Z,15.29
2019-04-16T13:47:01.195Z,15.34
2019-04-16T13:49:43.097Z,15.42
2019-04-16T13:52:11.537Z,15.28
2019-04-16T13:54:56.955Z,15.29
2019-04-16T13:57:27.143Z,15.29
2019-04-16T14:00:13.581Z,15.23
2019-04-16T14:02:51.047Z,15.34
2019-04-16T14:05:20.142Z,15.39
2019-04-16T14:07:48.620Z,15.27
2019-04-16T14:10:17.263Z,15.37
2019-04-16T14:12:45.768Z,15.26
2019-04-16T14:15:14.998Z,15.39
2019-04-16T14:17:52.205Z,15.36
2019-04-16T14:20:15.541Z,15.45
2019-04-16T14:22:44.025Z,15.41
2019-04-16T14:25:13.213Z,15.38
2019-04-16T14:27:41.703Z,15.42
2019-04-16T14:30:15.521Z,15.31
2019-04-16T14:32:44.139Z,15.30
2019-04-16T14:35:14.936Z,15.26
2019-04-16T14:37:43.332Z,15.48
2019-04-16T14:40:20.858Z,15.52
2019-04-16T14:42:49.784Z,15.46
2019-04-16T14:45:20.698Z,15.46
2019-04-16T14:47:49.776Z,15.50
2019-04-16T14:50:20.084Z,15.46
2019-04-16T14:52:48.551Z,15.57
2019-04-16T14:55:33.739Z,15.69
2019-04-16T14:58:20.282Z,15.56
2019-04-16T15:00:50.546Z,15.60
2019-04-16T15:03:36.877Z,15.65
2019-04-16T15:06:13.143Z,15.62
2019-04-16T15:09:01.465Z,15.62
2019-04-16T15:11:37.931Z,15.74
2019-04-16T15:14:26.093Z,15.70
2019-04-16T15:17:01.719Z,15.64
2019-04-16T15:19:31.789Z,15.68
2019-04-16T15:22:18.254Z,15.63
2019-04-16T15:25:08.034Z,15.56
2019-04-16T15:27:39.228Z,15.61
2019-04-16T15:30:28.567Z,15.59
2019-04-16T15:33:14.248Z,15.48
2019-04-16T15:35:55.683Z,15.63
2019-04-16T15:38:26.603Z,15.57
2019-04-16T15:41:00.675Z,15.50
2019-04-16T15:43:36.538Z,15.59
2019-04-16T15:46:25.277Z,15.52
2019-04-16T15:48:42.808Z,15.54
2019-04-16T15:51:14.854Z,15.54
2019-04-16T15:53:50.382Z,15.46
2019-04-16T15:56:19.521Z,15.50
2019-04-16T15:58:52.422Z,15.52
2019-04-16T16:01:22.542Z,15.47
2019-04-16T16:03:58.332Z,15.43
2019-04-16T16:06:28.451Z,15.51
2019-04-16T16:09:08.693Z,15.50
2019-04-16T16:11:39.405Z,15.46
2019-04-16T16:14:10.794Z,15.47
2019-04-16T16:16:42.089Z,15.59
2019-04-16T16:19:12.020Z,15.49
2019-04-16T16:21:39.662Z,15.46
2019-04-16T16:24:08.442Z,15.43
2019-04-16T16:26:37.302Z,15.51
2019-04-16T16:29:06.350Z,15.41
2019-04-16T16:31:35.738Z,15.38
2019-04-16T16:34:08.253Z,15.37
2019-04-16T16:36:36.516Z,15.37
2019-04-16T16:39:07.544Z,15.31
2019-04-16T16:41:36.083Z,15.35
2019-04-16T16:44:04.658Z,15.20
2019-04-16T16:46:57.184Z,15.12
2019-04-16T16:49:23.278Z,15.08
2019-04-16T16:52:05.453Z,15.15
2019-04-16T16:54:34.026Z,15.08
2019-04-16T16:57:07.744Z,15.05
2019-04-16T16:59:35.988Z,15.03
2019-04-16T17:02:10.451Z,15.07
2019-04-16T17:04:40.854Z,15.04
2019-04-16T17:07:09.696Z,14.87
2019-04-16T17:09:38.122Z,14.98
2019-04-16T17:12:06.684Z,14.96
2019-04-16T17:14:37.510Z,14.90
2019-04-16T17:17:14.389Z,14.80
2019-04-16T17:19:35.650Z,14.84
2019-04-16T17:22:04.150Z,14.75
2019-04-16T17:24:32.603Z,14.71
2019-04-16T17:27:01.086Z,14.79
2019-04-16T17:29:29.538Z,14.61
2019-04-16T17:31:58.002Z,14.47
2019-04-16T17:34:26.459Z,14.55
2019-04-16T17:36:55.807Z,14.47
2019-04-16T17:39:42.619Z,14.46
2019-04-16T17:42:12.966Z,14.40
2019-04-16T17:44:58.098Z,14.46
2019-04-16T17:47:32.873Z,14.35
2019-04-16T17:50:04.763Z,14.26
2019-04-16T17:52:46.779Z,14.27
2019-04-16T17:55:16.885Z,14.36
2019-04-16T17:57:56.005Z,14.22
2019-04-16T18:00:38.419Z,14.16
2019-04-16T18:03:24.775Z,14.13
2019-04-16T18:06:06.801Z,14.06
2019-04-16T18:11:31.312Z,13.90
2019-04-16T18:14:05.240Z,13.81
2019-04-16T18:16:33.759Z,13.77
2019-04-16T18:19:20.392Z,13.69
2019-04-16T18:21:56.147Z,13.66
2019-04-16T18:24:45.207Z,13.61
2019-04-16T18:27:29.582Z,13.59
2019-04-16T18:30:10.457Z,13.52
2019-04-16T18:32:49.779Z,13.49
2019-04-16T18:35:29.126Z,13.42
2019-04-16T18:38:11.575Z,13.38
2019-04-16T18:40:43.411Z,13.43
2019-04-16T18:43:20.712Z,13.34
2019-04-16T18:46:07.161Z,13.27
2019-04-16T18:48:44.600Z,13.24
2019-04-16T18:51:10.286Z,13.15
2019-04-16T18:53:40.290Z,13.12
2019-04-16T18:56:09.203Z,13.07
2019-04-16T18:58:41.495Z,12.96
2019-04-16T19:01:15.532Z,12.94
2019-04-16T19:03:44.129Z,12.89
2019-04-16T19:06:14.663Z,12.81
2019-04-16T19:08:43.119Z,12.80
2019-04-16T19:11:11.583Z,12.79
2019-04-16T19:13:40.203Z,12.72
2019-04-16T19:16:09.178Z,12.66
2019-04-16T19:18:43.617Z,12.56
2019-04-16T19:21:13.797Z,12.54
2019-04-16T19:23:42.255Z,12.51
2019-04-16T19:26:10.696Z,12.47
2019-04-16T19:28:40.293Z,12.42
2019-04-16T19:31:09.116Z,12.33
2019-04-16T19:33:38.540Z,12.32
2019-04-16T19:36:07.221Z,12.32
2019-04-16T19:38:39.369Z,12.23
2019-04-16T19:41:06.511Z,12.24
2019-04-16T19:43:35.701Z,12.23
2019-04-16T19:46:05.949Z,12.17
2019-04-16T19:48:36.134Z,12.09
2019-04-16T19:51:07.651Z,12.02
2019-04-16T19:53:35.032Z,12.06
2019-04-16T19:56:03.492Z,11.97
2019-04-16T19:58:32.109Z,11.92
2019-04-16T20:01:00.575Z,11.89
2019-04-16T20:03:31.359Z,11.81
2019-04-16T20:05:59.934Z,11.79
2019-04-16T20:08:34.341Z,11.77
2019-04-16T20:10:58.910Z,11.77
2019-04-16T20:13:29.011Z,11.68
2019-04-16T20:16:00.381Z,11.64
2019-04-16T20:18:31.326Z,11.64
2019-04-16T20:21:01.498Z,11.55
2019-04-16T20:23:30.439Z,11.50
2019-04-16T20:26:00.082Z,11.46
2019-04-16T20:28:29.229Z,11.39
2019-04-16T20:31:03.258Z,11.29
2019-04-16T20:33:27.949Z,11.32
2019-04-16T20:35:56.397Z,11.28
2019-04-16T20:38:29.021Z,11.23
2019-04-16T20:40:55.534Z,11.19
2019-04-16T20:43:24.120Z,11.13
2019-04-16T20:45:52.605Z,11.11
2019-04-16T20:48:21.051Z,11.08
2019-04-16T20:50:52.708Z,11.03
2019-04-16T20:53:20.014Z,10.93
2019-04-16T20:55:48.495Z,10.89
2019-04-16T20:58:16.954Z,10.82
2019-04-16T21:00:49.752Z,10.81
2019-04-16T21:03:22.180Z,10.76
2019-04-16T21:05:57.927Z,10.65
2019-04-16T21:08:24.371Z,10.50
2019-04-16T21:10:51.109Z,10.60
2019-04-16T21:13:19.556Z,10.54
2019-04-16T21:15:48.336Z,10.47
2019-04-16T21:18:16.986Z,10.41
2019-04-16T21:20:50.673Z,10.47
2019-04-16T21:23:16.055Z,10.42
2019-04-16T21:25:45.914Z,10.30
2019-04-16T21:28:22.421Z,10.32
2019-04-16T21:30:52.602Z,10.38
2019-04-16T21:36:13.579Z,10.51
2019-04-16T21:38:46.165Z,10.52
2019-04-16T21:41:15.199Z,10.49
2019-04-16T21:43:43.638Z,10.57
2019-04-16T21:46:12.115Z,10.71
2019-04-16T21:48:40.597Z,10.52
2019-04-16T21:51:09.048Z,10.54
2019-04-16T21:53:37.503Z,10.58
2019-04-16T21:56:08.253Z,10.57
2019-04-16T21:58:36.411Z,10.54
2019-04-16T22:01:06.665Z,10.50
2019-04-16T22:03:41.754Z,10.44
2019-04-16T22:06:06.976Z,10.62
2019-04-16T22:08:35.637Z,10.50
2019-04-16T22:11:04.197Z,10.56
2019-04-16T22:13:32.809Z,10.63
2019-04-16T22:16:01.332Z,10.58
2019-04-16T22:18:30.283Z,10.51
2019-04-16T22:21:00.436Z,10.43
2019-04-16T22:23:29.662Z,10.37
2019-04-16T22:26:01.441Z,10.41
2019-04-16T22:28:28.909Z,10.46
2019-04-16T22:30:57.386Z,10.43
2019-04-16T22:33:25.892Z,10.37
2019-04-16T22:35:54.346Z,10.40
2019-04-16T22:38:22.786Z,10.35
2019-04-16T22:40:54.913Z,10.28
2019-04-16T22:43:43.418Z,10.11
2019-04-16T22:46:18.971Z,9.97
2019-04-16T22:48:57.720Z,9.91
2019-04-16T22:51:26.689Z,9.88
2019-04-16T22:53:55.226Z,9.75
2019-04-16T22:56:28.146Z,9.63
2019-04-16T22:58:56.258Z,9.70
2019-04-16T23:01:29.916Z,9.60
2019-04-16T23:03:58.485Z,9.64
2019-04-16T23:06:27.016Z,9.52
2019-04-16T23:08:55.501Z,9.52
2019-04-16T23:11:24.550Z,9.49
2019-04-16T23:13:53.020Z,9.49
2019-04-16T23:16:21.538Z,9.47
2019-04-16T23:18:50.174Z,9.62
2019-04-16T23:21:18.582Z,9.69
2019-04-16T23:23:47.692Z,9.77
2019-04-16T23:26:17.342Z,9.63
2019-04-16T23:28:45.813Z,9.50
2019-04-16T23:31:14.286Z,9.52
2019-04-16T23:33:42.752Z,9.53
2019-04-16T23:36:14.998Z,9.39
2019-04-16T23:38:41.475Z,9.36
2019-04-16T23:41:15.344Z,9.33
2019-04-16T23:43:44.136Z,9.27
2019-04-16T23:46:30.490Z,9.26
2019-04-16T23:49:00.563Z,9.31
2019-04-16T23:51:30.689Z,9.21
2019-04-16T23:54:00.887Z,9.30
2019-04-16T23:56:31.046Z,9.20
2019-04-16T23:59:02.616Z,9.22
